sensor_id;sensor_type;location;lat;lon;timestamp;P1;durP1;ratioP1;P2;durP2;ratioP2
64686;SDS011;51113;53.646;-113.674;2024-01-30T00:00:20;3.63;;;1.60;;
64686;SDS011;51113;53.646;-113.674;2024-01-30T00:02:48;6.75;;;1.55;;
64686;SDS011;51113;53.646;-113.674;2024-01-30T00:05:17;4.78;;;1.40;;
64686;SDS011;51113;53.646;-113.674;2024-01-30T00:07:46;1.85;;;1.30;;
64686;SDS011;51113;53.646;-113.674;2024-01-30T00:10:14;4.07;;;1.40;;
64686;SDS011;51113;53.646;-113.674;2024-01-30T00:12:44;1.65;;;1.20;;
64686;SDS011;51113;53.646;-113.674;2024-01-30T00:15:12;1.70;;;1.05;;
64686;SDS011;51113;53.646;-113.674;2024-01-30T00:17:40;2.90;;;1.20;;
64686;SDS011;51113;53.646;-113.674;2024-01-30T00:20:09;3.40;;;1.60;;
64686;SDS011;51113;53.646;-113.674;2024-01-30T00:22:38;2.45;;;1.52;;
64686;SDS011;51113;53.646;-113.674;2024-01-30T00:25:06;3.10;;;1.30;;
64686;SDS011;51113;53.646;-113.674;2024-01-30T00:27:35;3.28;;;1.33;;
64686;SDS011;51113;53.646;-113.674;2024-01-30T00:30:04;2.83;;;1.50;;
64686;SDS011;51113;53.646;-113.674;2024-01-30T00:32:34;3.28;;;1.17;;
64686;SDS011;51113;53.646;-113.674;2024-01-30T00:35:02;3.78;;;1.10;;
64686;SDS011;51113;53.646;-113.674;2024-01-30T00:37:31;1.27;;;1.00;;
64686;SDS011;51113;53.646;-113.674;2024-01-30T00:40:03;2.20;;;1.10;;
64686;SDS011;51113;53.646;-113.674;2024-01-30T00:42:33;2.42;;;1.52;;
64686;SDS011;51113;53.646;-113.674;2024-01-30T00:45:02;2.47;;;1.80;;
64686;SDS011;51113;53.646;-113.674;2024-01-30T00:47:31;6.38;;;1.52;;
64686;SDS011;51113;53.646;-113.674;2024-01-30T00:50:00;2.67;;;1.70;;
64686;SDS011;51113;53.646;-113.674;2024-01-30T00:52:29;3.15;;;1.90;;
64686;SDS011;51113;53.646;-113.674;2024-01-30T00:54:58;3.22;;;1.40;;
64686;SDS011;51113;53.646;-113.674;2024-01-30T00:57:27;3.13;;;1.55;;
64686;SDS011;51113;53.646;-113.674;2024-01-30T00:59:56;3.13;;;1.20;;
64686;SDS011;51113;53.646;-113.674;2024-01-30T01:02:25;3.30;;;1.40;;
64686;SDS011;51113;53.646;-113.674;2024-01-30T01:04:53;6.75;;;1.25;;
64686;SDS011;51113;53.646;-113.674;2024-01-30T01:07:21;1.63;;;1.13;;
64686;SDS011;51113;53.646;-113.674;2024-01-30T01:09:50;2.58;;;1.17;;
64686;SDS011;51113;53.646;-113.674;2024-01-30T01:12:19;2.70;;;1.10;;
64686;SDS011;51113;53.646;-113.674;2024-01-30T01:14:47;1.60;;;1.00;;
64686;SDS011;51113;53.646;-113.674;2024-01-30T01:17:17;1.35;;;1.00;;
64686;SDS011;51113;53.646;-113.674;2024-01-30T01:19:46;2.42;;;1.17;;
64686;SDS011;51113;53.646;-113.674;2024-01-30T01:22:15;2.00;;;1.02;;
64686;SDS011;51113;53.646;-113.674;2024-01-30T01:24:45;1.38;;;1.08;;
64686;SDS011;51113;53.646;-113.674;2024-01-30T01:27:13;1.98;;;1.20;;
64686;SDS011;51113;53.646;-113.674;2024-01-30T01:29:42;1.42;;;0.90;;
64686;SDS011;51113;53.646;-113.674;2024-01-30T01:32:11;2.47;;;1.52;;
64686;SDS011;51113;53.646;-113.674;2024-01-30T01:34:39;2.47;;;1.20;;
64686;SDS011;51113;53.646;-113.674;2024-01-30T01:37:08;4.85;;;1.20;;
64686;SDS011;51113;53.646;-113.674;2024-01-30T01:39:36;1.30;;;1.10;;
64686;SDS011;51113;53.646;-113.674;2024-01-30T01:42:05;2.97;;;1.33;;
64686;SDS011;51113;53.646;-113.674;2024-01-30T01:44:33;3.33;;;1.88;;
64686;SDS011;51113;53.646;-113.674;2024-01-30T01:47:02;2.40;;;1.30;;
64686;SDS011;51113;53.646;-113.674;2024-01-30T01:49:31;2.90;;;1.50;;
64686;SDS011;51113;53.646;-113.674;2024-01-30T01:52:00;4.15;;;1.40;;
64686;SDS011;51113;53.646;-113.674;2024-01-30T01:54:29;8.30;;;1.45;;
64686;SDS011;51113;53.646;-113.674;2024-01-30T01:56:58;11.50;;;1.85;;
64686;SDS011;51113;53.646;-113.674;2024-01-30T01:59:28;3.17;;;1.60;;
64686;SDS011;51113;53.646;-113.674;2024-01-30T02:01:56;2.67;;;1.73;;
64686;SDS011;51113;53.646;-113.674;2024-01-30T02:04:25;3.58;;;1.75;;
64686;SDS011;51113;53.646;-113.674;2024-01-30T02:06:54;2.10;;;1.42;;
64686;SDS011;51113;53.646;-113.674;2024-01-30T02:09:23;5.72;;;1.83;;
64686;SDS011;51113;53.646;-113.674;2024-01-30T02:11:52;2.65;;;1.58;;
64686;SDS011;51113;53.646;-113.674;2024-01-30T02:14:21;5.78;;;1.92;;
64686;SDS011;51113;53.646;-113.674;2024-01-30T02:16:51;3.55;;;1.75;;
64686;SDS011;51113;53.646;-113.674;2024-01-30T02:19:19;5.20;;;1.98;;
64686;SDS011;51113;53.646;-113.674;2024-01-30T02:21:48;3.45;;;1.92;;
64686;SDS011;51113;53.646;-113.674;2024-01-30T02:24:17;4.38;;;2.00;;
64686;SDS011;51113;53.646;-113.674;2024-01-30T02:26:46;5.30;;;1.90;;
64686;SDS011;51113;53.646;-113.674;2024-01-30T02:29:14;5.80;;;1.83;;
64686;SDS011;51113;53.646;-113.674;2024-01-30T02:31:43;4.18;;;1.77;;
64686;SDS011;51113;53.646;-113.674;2024-01-30T02:34:13;5.10;;;2.00;;
64686;SDS011;51113;53.646;-113.674;2024-01-30T02:36:43;3.47;;;1.73;;
64686;SDS011;51113;53.646;-113.674;2024-01-30T02:39:11;3.20;;;1.60;;
64686;SDS011;51113;53.646;-113.674;2024-01-30T02:41:40;5.10;;;2.05;;
64686;SDS011;51113;53.646;-113.674;2024-01-30T02:44:09;6.88;;;2.35;;
64686;SDS011;51113;53.646;-113.674;2024-01-30T02:46:37;9.85;;;2.33;;
64686;SDS011;51113;53.646;-113.674;2024-01-30T02:49:06;7.45;;;2.67;;
64686;SDS011;51113;53.646;-113.674;2024-01-30T02:51:34;12.98;;;2.20;;
64686;SDS011;51113;53.646;-113.674;2024-01-30T02:54:03;7.38;;;2.35;;
64686;SDS011;51113;53.646;-113.674;2024-01-30T02:56:32;5.95;;;1.92;;
64686;SDS011;51113;53.646;-113.674;2024-01-30T02:59:00;3.10;;;1.77;;
64686;SDS011;51113;53.646;-113.674;2024-01-30T03:01:29;4.72;;;2.13;;
64686;SDS011;51113;53.646;-113.674;2024-01-30T03:03:59;5.13;;;2.17;;
64686;SDS011;51113;53.646;-113.674;2024-01-30T03:06:28;7.05;;;2.25;;
64686;SDS011;51113;53.646;-113.674;2024-01-30T03:08:57;5.22;;;2.00;;
64686;SDS011;51113;53.646;-113.674;2024-01-30T03:11:25;7.57;;;1.73;;
64686;SDS011;51113;53.646;-113.674;2024-01-30T03:13:54;5.15;;;2.20;;
64686;SDS011;51113;53.646;-113.674;2024-01-30T03:16:22;3.70;;;1.80;;
64686;SDS011;51113;53.646;-113.674;2024-01-30T03:18:50;6.30;;;2.00;;
64686;SDS011;51113;53.646;-113.674;2024-01-30T03:21:19;7.57;;;1.85;;
64686;SDS011;51113;53.646;-113.674;2024-01-30T03:23:48;4.68;;;2.05;;
64686;SDS011;51113;53.646;-113.674;2024-01-30T03:26:16;4.10;;;1.83;;
64686;SDS011;51113;53.646;-113.674;2024-01-30T03:28:45;3.08;;;1.60;;
64686;SDS011;51113;53.646;-113.674;2024-01-30T03:31:14;4.30;;;1.70;;
64686;SDS011;51113;53.646;-113.674;2024-01-30T03:33:43;4.25;;;1.85;;
64686;SDS011;51113;53.646;-113.674;2024-01-30T03:36:12;3.83;;;1.88;;
64686;SDS011;51113;53.646;-113.674;2024-01-30T03:38:41;4.88;;;1.92;;
64686;SDS011;51113;53.646;-113.674;2024-01-30T03:41:10;5.55;;;1.60;;
64686;SDS011;51113;53.646;-113.674;2024-01-30T03:43:38;3.63;;;1.90;;
64686;SDS011;51113;53.646;-113.674;2024-01-30T03:46:07;4.75;;;1.77;;
64686;SDS011;51113;53.646;-113.674;2024-01-30T03:48:36;3.38;;;1.90;;
64686;SDS011;51113;53.646;-113.674;2024-01-30T03:51:04;4.95;;;2.08;;
64686;SDS011;51113;53.646;-113.674;2024-01-30T03:53:33;5.28;;;1.60;;
64686;SDS011;51113;53.646;-113.674;2024-01-30T03:56:01;5.38;;;2.03;;
64686;SDS011;51113;53.646;-113.674;2024-01-30T03:58:30;6.53;;;2.03;;
64686;SDS011;51113;53.646;-113.674;2024-01-30T04:00:59;3.45;;;1.90;;
64686;SDS011;51113;53.646;-113.674;2024-01-30T04:03:28;5.28;;;2.03;;
64686;SDS011;51113;53.646;-113.674;2024-01-30T04:05:57;2.97;;;1.92;;
64686;SDS011;51113;53.646;-113.674;2024-01-30T04:08:25;12.02;;;2.45;;
64686;SDS011;51113;53.646;-113.674;2024-01-30T04:10:54;5.18;;;2.78;;
64686;SDS011;51113;53.646;-113.674;2024-01-30T04:13:23;6.00;;;2.50;;
64686;SDS011;51113;53.646;-113.674;2024-01-30T04:15:51;7.03;;;2.58;;
64686;SDS011;51113;53.646;-113.674;2024-01-30T04:18:22;3.78;;;2.05;;
64686;SDS011;51113;53.646;-113.674;2024-01-30T04:20:51;6.88;;;2.40;;
64686;SDS011;51113;53.646;-113.674;2024-01-30T04:23:19;5.13;;;2.40;;
64686;SDS011;51113;53.646;-113.674;2024-01-30T04:25:48;7.30;;;2.50;;
64686;SDS011;51113;53.646;-113.674;2024-01-30T04:28:16;7.15;;;2.30;;
64686;SDS011;51113;53.646;-113.674;2024-01-30T04:30:45;5.57;;;2.30;;
64686;SDS011;51113;53.646;-113.674;2024-01-30T04:33:14;4.53;;;2.10;;
64686;SDS011;51113;53.646;-113.674;2024-01-30T04:35:42;6.43;;;2.55;;
64686;SDS011;51113;53.646;-113.674;2024-01-30T04:38:11;5.88;;;2.60;;
64686;SDS011;51113;53.646;-113.674;2024-01-30T04:40:40;4.65;;;2.33;;
64686;SDS011;51113;53.646;-113.674;2024-01-30T04:43:08;6.88;;;2.42;;
64686;SDS011;51113;53.646;-113.674;2024-01-30T04:45:37;8.40;;;2.50;;
64686;SDS011;51113;53.646;-113.674;2024-01-30T04:48:06;6.65;;;2.95;;
64686;SDS011;51113;53.646;-113.674;2024-01-30T04:50:35;7.13;;;2.63;;
64686;SDS011;51113;53.646;-113.674;2024-01-30T04:53:04;3.45;;;2.40;;
64686;SDS011;51113;53.646;-113.674;2024-01-30T04:55:32;6.70;;;2.50;;
64686;SDS011;51113;53.646;-113.674;2024-01-30T04:58:01;8.60;;;2.92;;
64686;SDS011;51113;53.646;-113.674;2024-01-30T05:00:29;10.10;;;2.58;;
64686;SDS011;51113;53.646;-113.674;2024-01-30T05:02:58;3.60;;;2.10;;
64686;SDS011;51113;53.646;-113.674;2024-01-30T05:05:27;4.88;;;2.40;;
64686;SDS011;51113;53.646;-113.674;2024-01-30T05:07:55;4.53;;;2.30;;
64686;SDS011;51113;53.646;-113.674;2024-01-30T05:10:24;5.90;;;2.67;;
64686;SDS011;51113;53.646;-113.674;2024-01-30T05:12:52;7.00;;;2.55;;
64686;SDS011;51113;53.646;-113.674;2024-01-30T05:15:21;8.30;;;2.35;;
64686;SDS011;51113;53.646;-113.674;2024-01-30T05:17:49;4.93;;;2.22;;
64686;SDS011;51113;53.646;-113.674;2024-01-30T05:20:20;4.28;;;2.47;;
64686;SDS011;51113;53.646;-113.674;2024-01-30T05:22:49;4.65;;;2.42;;
64686;SDS011;51113;53.646;-113.674;2024-01-30T05:25:17;4.05;;;2.20;;
64686;SDS011;51113;53.646;-113.674;2024-01-30T05:27:46;4.63;;;2.03;;
64686;SDS011;51113;53.646;-113.674;2024-01-30T05:30:15;5.00;;;2.28;;
64686;SDS011;51113;53.646;-113.674;2024-01-30T05:32:44;5.97;;;2.42;;
64686;SDS011;51113;53.646;-113.674;2024-01-30T05:35:13;6.03;;;2.30;;
64686;SDS011;51113;53.646;-113.674;2024-01-30T05:37:41;7.93;;;2.67;;
64686;SDS011;51113;53.646;-113.674;2024-01-30T05:40:10;6.10;;;2.10;;
64686;SDS011;51113;53.646;-113.674;2024-01-30T05:42:39;3.75;;;1.83;;
64686;SDS011;51113;53.646;-113.674;2024-01-30T05:45:08;4.13;;;2.20;;
64686;SDS011;51113;53.646;-113.674;2024-01-30T05:47:37;5.50;;;1.85;;
64686;SDS011;51113;53.646;-113.674;2024-01-30T05:50:05;3.53;;;1.95;;
64686;SDS011;51113;53.646;-113.674;2024-01-30T05:52:35;3.33;;;1.77;;
64686;SDS011;51113;53.646;-113.674;2024-01-30T05:55:03;4.20;;;1.55;;
64686;SDS011;51113;53.646;-113.674;2024-01-30T05:57:33;4.10;;;1.85;;
64686;SDS011;51113;53.646;-113.674;2024-01-30T06:00:01;2.90;;;1.73;;
64686;SDS011;51113;53.646;-113.674;2024-01-30T06:02:30;5.40;;;1.60;;
64686;SDS011;51113;53.646;-113.674;2024-01-30T06:04:59;4.28;;;1.88;;
64686;SDS011;51113;53.646;-113.674;2024-01-30T06:07:28;2.08;;;1.58;;
64686;SDS011;51113;53.646;-113.674;2024-01-30T06:10:02;4.00;;;1.83;;
64686;SDS011;51113;53.646;-113.674;2024-01-30T06:12:31;2.78;;;1.80;;
64686;SDS011;51113;53.646;-113.674;2024-01-30T06:14:59;2.08;;;1.50;;
64686;SDS011;51113;53.646;-113.674;2024-01-30T06:17:28;4.82;;;1.77;;
64686;SDS011;51113;53.646;-113.674;2024-01-30T06:19:57;3.20;;;1.90;;
64686;SDS011;51113;53.646;-113.674;2024-01-30T06:22:25;3.25;;;1.88;;
64686;SDS011;51113;53.646;-113.674;2024-01-30T06:24:54;3.80;;;1.58;;
64686;SDS011;51113;53.646;-113.674;2024-01-30T06:27:22;6.70;;;1.83;;
64686;SDS011;51113;53.646;-113.674;2024-01-30T06:29:51;4.55;;;1.67;;
64686;SDS011;51113;53.646;-113.674;2024-01-30T06:32:20;3.22;;;1.90;;
64686;SDS011;51113;53.646;-113.674;2024-01-30T06:34:48;2.50;;;1.58;;
64686;SDS011;51113;53.646;-113.674;2024-01-30T06:37:17;2.03;;;1.50;;
64686;SDS011;51113;53.646;-113.674;2024-01-30T06:39:46;4.05;;;1.90;;
64686;SDS011;51113;53.646;-113.674;2024-01-30T06:42:14;4.03;;;1.90;;
64686;SDS011;51113;53.646;-113.674;2024-01-30T06:44:43;5.55;;;1.73;;
64686;SDS011;51113;53.646;-113.674;2024-01-30T06:47:12;2.38;;;1.23;;
64686;SDS011;51113;53.646;-113.674;2024-01-30T06:49:44;2.72;;;1.23;;
64686;SDS011;51113;53.646;-113.674;2024-01-30T06:52:13;5.28;;;1.20;;
64686;SDS011;51113;53.646;-113.674;2024-01-30T06:54:42;1.63;;;1.05;;
64686;SDS011;51113;53.646;-113.674;2024-01-30T06:57:10;1.75;;;1.15;;
64686;SDS011;51113;53.646;-113.674;2024-01-30T06:59:39;2.55;;;1.30;;
64686;SDS011;51113;53.646;-113.674;2024-01-30T07:02:11;1.23;;;0.88;;
64686;SDS011;51113;53.646;-113.674;2024-01-30T07:04:40;2.08;;;1.10;;
64686;SDS011;51113;53.646;-113.674;2024-01-30T07:07:13;2.72;;;1.08;;
64686;SDS011;51113;53.646;-113.674;2024-01-30T07:09:43;2.45;;;1.02;;
64686;SDS011;51113;53.646;-113.674;2024-01-30T07:12:11;1.52;;;1.13;;
64686;SDS011;51113;53.646;-113.674;2024-01-30T07:14:40;1.42;;;1.20;;
64686;SDS011;51113;53.646;-113.674;2024-01-30T07:17:09;5.60;;;1.17;;
64686;SDS011;51113;53.646;-113.674;2024-01-30T07:19:37;2.58;;;1.25;;
64686;SDS011;51113;53.646;-113.674;2024-01-30T07:22:06;2.22;;;1.30;;
64686;SDS011;51113;53.646;-113.674;2024-01-30T07:24:35;1.10;;;1.00;;
64686;SDS011;51113;53.646;-113.674;2024-01-30T07:27:03;3.50;;;1.20;;
64686;SDS011;51113;53.646;-113.674;2024-01-30T07:29:32;5.68;;;0.90;;
64686;SDS011;51113;53.646;-113.674;2024-01-30T07:32:00;1.40;;;1.00;;
64686;SDS011;51113;53.646;-113.674;2024-01-30T07:34:29;1.77;;;1.05;;
64686;SDS011;51113;53.646;-113.674;2024-01-30T07:37:07;1.58;;;1.00;;
64686;SDS011;51113;53.646;-113.674;2024-01-30T07:42:09;1.92;;;1.05;;
64686;SDS011;51113;53.646;-113.674;2024-01-30T07:44:38;2.97;;;0.80;;
64686;SDS011;51113;53.646;-113.674;2024-01-30T07:47:06;1.38;;;1.08;;
64686;SDS011;51113;53.646;-113.674;2024-01-30T07:49:35;1.05;;;0.90;;
64686;SDS011;51113;53.646;-113.674;2024-01-30T07:52:04;1.15;;;1.00;;
64686;SDS011;51113;53.646;-113.674;2024-01-30T07:54:33;2.30;;;1.20;;
64686;SDS011;51113;53.646;-113.674;2024-01-30T07:57:02;1.58;;;1.00;;
64686;SDS011;51113;53.646;-113.674;2024-01-30T07:59:30;2.45;;;1.27;;
64686;SDS011;51113;53.646;-113.674;2024-01-30T08:01:59;4.57;;;1.00;;
64686;SDS011;51113;53.646;-113.674;2024-01-30T08:04:28;0.88;;;0.82;;
64686;SDS011;51113;53.646;-113.674;2024-01-30T08:06:57;1.67;;;1.10;;
64686;SDS011;51113;53.646;-113.674;2024-01-30T08:09:25;2.38;;;1.17;;
64686;SDS011;51113;53.646;-113.674;2024-01-30T08:11:54;1.38;;;0.93;;
64686;SDS011;51113;53.646;-113.674;2024-01-30T08:14:23;1.83;;;1.10;;
64686;SDS011;51113;53.646;-113.674;2024-01-30T08:16:53;1.50;;;1.10;;
64686;SDS011;51113;53.646;-113.674;2024-01-30T08:19:23;1.10;;;0.90;;
64686;SDS011;51113;53.646;-113.674;2024-01-30T08:21:51;1.15;;;1.00;;
64686;SDS011;51113;53.646;-113.674;2024-01-30T08:24:20;3.28;;;1.10;;
64686;SDS011;51113;53.646;-113.674;2024-01-30T08:26:49;0.93;;;0.90;;
64686;SDS011;51113;53.646;-113.674;2024-01-30T08:29:17;1.20;;;0.93;;
64686;SDS011;51113;53.646;-113.674;2024-01-30T08:31:46;1.05;;;0.95;;
64686;SDS011;51113;53.646;-113.674;2024-01-30T08:34:14;1.48;;;1.10;;
64686;SDS011;51113;53.646;-113.674;2024-01-30T08:36:44;1.95;;;1.00;;
64686;SDS011;51113;53.646;-113.674;2024-01-30T08:39:13;2.85;;;1.23;;
64686;SDS011;51113;53.646;-113.674;2024-01-30T08:41:42;1.05;;;0.90;;
64686;SDS011;51113;53.646;-113.674;2024-01-30T08:44:11;1.48;;;0.98;;
64686;SDS011;51113;53.646;-113.674;2024-01-30T08:46:39;3.55;;;0.93;;
64686;SDS011;51113;53.646;-113.674;2024-01-30T08:49:08;3.33;;;1.30;;
64686;SDS011;51113;53.646;-113.674;2024-01-30T08:51:37;7.50;;;0.90;;
64686;SDS011;51113;53.646;-113.674;2024-01-30T08:54:06;1.00;;;0.90;;
64686;SDS011;51113;53.646;-113.674;2024-01-30T08:56:35;1.00;;;0.90;;
64686;SDS011;51113;53.646;-113.674;2024-01-30T08:59:03;3.70;;;1.30;;
64686;SDS011;51113;53.646;-113.674;2024-01-30T09:01:32;1.65;;;1.00;;
64686;SDS011;51113;53.646;-113.674;2024-01-30T09:04:01;1.13;;;0.90;;
64686;SDS011;51113;53.646;-113.674;2024-01-30T09:06:29;1.15;;;0.80;;
64686;SDS011;51113;53.646;-113.674;2024-01-30T09:08:58;0.88;;;0.80;;
64686;SDS011;51113;53.646;-113.674;2024-01-30T09:11:27;1.05;;;0.80;;
64686;SDS011;51113;53.646;-113.674;2024-01-30T09:13:56;1.50;;;1.00;;
64686;SDS011;51113;53.646;-113.674;2024-01-30T09:16:24;0.98;;;0.80;;
64686;SDS011;51113;53.646;-113.674;2024-01-30T09:18:53;3.55;;;0.95;;
64686;SDS011;51113;53.646;-113.674;2024-01-30T09:21:22;1.13;;;0.90;;
64686;SDS011;51113;53.646;-113.674;2024-01-30T09:23:53;2.42;;;0.75;;
64686;SDS011;51113;53.646;-113.674;2024-01-30T09:26:22;0.88;;;0.85;;
64686;SDS011;51113;53.646;-113.674;2024-01-30T09:28:52;1.63;;;0.80;;
64686;SDS011;51113;53.646;-113.674;2024-01-30T09:31:21;1.30;;;0.98;;
64686;SDS011;51113;53.646;-113.674;2024-01-30T09:33:50;1.50;;;1.00;;
64686;SDS011;51113;53.646;-113.674;2024-01-30T09:36:19;2.08;;;1.00;;
64686;SDS011;51113;53.646;-113.674;2024-01-30T09:38:48;1.50;;;0.80;;
64686;SDS011;51113;53.646;-113.674;2024-01-30T09:41:17;1.75;;;0.80;;
64686;SDS011;51113;53.646;-113.674;2024-01-30T09:43:48;0.85;;;0.70;;
64686;SDS011;51113;53.646;-113.674;2024-01-30T09:46:18;0.70;;;0.70;;
64686;SDS011;51113;53.646;-113.674;2024-01-30T09:48:49;1.25;;;0.90;;
64686;SDS011;51113;53.646;-113.674;2024-01-30T09:51:18;1.08;;;0.80;;
64686;SDS011;51113;53.646;-113.674;2024-01-30T09:53:49;0.73;;;0.70;;
64686;SDS011;51113;53.646;-113.674;2024-01-30T09:56:17;0.77;;;0.70;;
64686;SDS011;51113;53.646;-113.674;2024-01-30T09:58:47;0.90;;;0.80;;
64686;SDS011;51113;53.646;-113.674;2024-01-30T10:01:17;0.80;;;0.80;;
64686;SDS011;51113;53.646;-113.674;2024-01-30T10:03:49;0.70;;;0.70;;
64686;SDS011;51113;53.646;-113.674;2024-01-30T10:06:20;1.27;;;0.80;;
64686;SDS011;51113;53.646;-113.674;2024-01-30T10:08:50;1.27;;;0.80;;
64686;SDS011;51113;53.646;-113.674;2024-01-30T10:11:19;0.60;;;0.60;;
64686;SDS011;51113;53.646;-113.674;2024-01-30T10:13:48;0.70;;;0.70;;
64686;SDS011;51113;53.646;-113.674;2024-01-30T10:16:17;2.20;;;1.00;;
64686;SDS011;51113;53.646;-113.674;2024-01-30T10:18:46;1.33;;;0.88;;
64686;SDS011;51113;53.646;-113.674;2024-01-30T10:21:15;3.88;;;0.88;;
64686;SDS011;51113;53.646;-113.674;2024-01-30T10:23:44;0.68;;;0.68;;
64686;SDS011;51113;53.646;-113.674;2024-01-30T10:26:13;0.70;;;0.70;;
64686;SDS011;51113;53.646;-113.674;2024-01-30T10:28:44;2.05;;;0.77;;
64686;SDS011;51113;53.646;-113.674;2024-01-30T10:31:16;0.65;;;0.65;;
64686;SDS011;51113;53.646;-113.674;2024-01-30T10:33:45;0.70;;;0.70;;
64686;SDS011;51113;53.646;-113.674;2024-01-30T10:36:14;0.63;;;0.63;;
64686;SDS011;51113;53.646;-113.674;2024-01-30T10:38:46;0.70;;;0.70;;
64686;SDS011;51113;53.646;-113.674;2024-01-30T10:41:19;0.70;;;0.70;;
64686;SDS011;51113;53.646;-113.674;2024-01-30T10:43:58;0.60;;;0.60;;
64686;SDS011;51113;53.646;-113.674;2024-01-30T10:46:31;0.80;;;0.68;;
64686;SDS011;51113;53.646;-113.674;2024-01-30T10:49:02;0.63;;;0.63;;
64686;SDS011;51113;53.646;-113.674;2024-01-30T10:51:34;0.75;;;0.70;;
64686;SDS011;51113;53.646;-113.674;2024-01-30T10:54:05;0.82;;;0.70;;
64686;SDS011;51113;53.646;-113.674;2024-01-30T10:56:35;0.77;;;0.70;;
64686;SDS011;51113;53.646;-113.674;2024-01-30T10:59:04;0.73;;;0.73;;
64686;SDS011;51113;53.646;-113.674;2024-01-30T11:01:37;0.80;;;0.70;;
64686;SDS011;51113;53.646;-113.674;2024-01-30T11:04:06;0.60;;;0.60;;
64686;SDS011;51113;53.646;-113.674;2024-01-30T11:06:40;0.85;;;0.70;;
64686;SDS011;51113;53.646;-113.674;2024-01-30T11:09:11;0.63;;;0.63;;
64686;SDS011;51113;53.646;-113.674;2024-01-30T11:11:50;0.60;;;0.60;;
64686;SDS011;51113;53.646;-113.674;2024-01-30T11:14:30;0.60;;;0.60;;
64686;SDS011;51113;53.646;-113.674;2024-01-30T11:17:00;1.48;;;0.60;;
64686;SDS011;51113;53.646;-113.674;2024-01-30T11:19:30;0.70;;;0.70;;
64686;SDS011;51113;53.646;-113.674;2024-01-30T11:22:00;1.45;;;0.70;;
64686;SDS011;51113;53.646;-113.674;2024-01-30T11:24:29;0.80;;;0.80;;
64686;SDS011;51113;53.646;-113.674;2024-01-30T11:26:58;0.70;;;0.70;;
64686;SDS011;51113;53.646;-113.674;2024-01-30T11:29:28;1.58;;;0.80;;
64686;SDS011;51113;53.646;-113.674;2024-01-30T11:31:57;0.68;;;0.60;;
64686;SDS011;51113;53.646;-113.674;2024-01-30T11:34:26;0.63;;;0.63;;
64686;SDS011;51113;53.646;-113.674;2024-01-30T11:36:59;0.60;;;0.60;;
64686;SDS011;51113;53.646;-113.674;2024-01-30T11:39:31;0.77;;;0.60;;
64686;SDS011;51113;53.646;-113.674;2024-01-30T11:42:00;0.80;;;0.60;;
64686;SDS011;51113;53.646;-113.674;2024-01-30T11:44:31;0.60;;;0.60;;
64686;SDS011;51113;53.646;-113.674;2024-01-30T11:46:59;0.80;;;0.70;;
64686;SDS011;51113;53.646;-113.674;2024-01-30T11:49:27;0.85;;;0.70;;
64686;SDS011;51113;53.646;-113.674;2024-01-30T11:51:57;0.57;;;0.57;;
64686;SDS011;51113;53.646;-113.674;2024-01-30T11:54:26;0.73;;;0.68;;
64686;SDS011;51113;53.646;-113.674;2024-01-30T11:56:54;0.82;;;0.60;;
64686;SDS011;51113;53.646;-113.674;2024-01-30T11:59:24;0.60;;;0.60;;
64686;SDS011;51113;53.646;-113.674;2024-01-30T12:01:52;1.02;;;0.80;;
64686;SDS011;51113;53.646;-113.674;2024-01-30T12:04:21;0.95;;;0.80;;
64686;SDS011;51113;53.646;-113.674;2024-01-30T12:06:51;0.60;;;0.60;;
64686;SDS011;51113;53.646;-113.674;2024-01-30T12:09:19;0.60;;;0.60;;
64686;SDS011;51113;53.646;-113.674;2024-01-30T12:11:49;3.47;;;0.70;;
64686;SDS011;51113;53.646;-113.674;2024-01-30T12:14:18;0.60;;;0.60;;
64686;SDS011;51113;53.646;-113.674;2024-01-30T12:16:49;0.70;;;0.63;;
64686;SDS011;51113;53.646;-113.674;2024-01-30T12:19:22;0.60;;;0.60;;
64686;SDS011;51113;53.646;-113.674;2024-01-30T12:24:27;0.60;;;0.60;;
64686;SDS011;51113;53.646;-113.674;2024-01-30T12:26:58;0.50;;;0.50;;
64686;SDS011;51113;53.646;-113.674;2024-01-30T12:29:31;0.60;;;0.60;;
64686;SDS011;51113;53.646;-113.674;2024-01-30T12:32:05;0.98;;;0.70;;
64686;SDS011;51113;53.646;-113.674;2024-01-30T12:34:34;0.60;;;0.60;;
64686;SDS011;51113;53.646;-113.674;2024-01-30T12:37:15;1.27;;;0.68;;
64686;SDS011;51113;53.646;-113.674;2024-01-30T12:39:53;1.17;;;0.70;;
64686;SDS011;51113;53.646;-113.674;2024-01-30T12:42:22;0.60;;;0.60;;
64686;SDS011;51113;53.646;-113.674;2024-01-30T12:44:51;1.23;;;0.68;;
64686;SDS011;51113;53.646;-113.674;2024-01-30T12:47:22;0.52;;;0.52;;
64686;SDS011;51113;53.646;-113.674;2024-01-30T12:49:51;0.60;;;0.60;;
64686;SDS011;51113;53.646;-113.674;2024-01-30T12:52:21;0.50;;;0.50;;
64686;SDS011;51113;53.646;-113.674;2024-01-30T12:54:51;0.50;;;0.50;;
64686;SDS011;51113;53.646;-113.674;2024-01-30T12:57:19;1.70;;;0.70;;
64686;SDS011;51113;53.646;-113.674;2024-01-30T12:59:48;0.98;;;0.77;;
64686;SDS011;51113;53.646;-113.674;2024-01-30T13:02:17;1.48;;;0.68;;
64686;SDS011;51113;53.646;-113.674;2024-01-30T13:04:45;0.60;;;0.60;;
64686;SDS011;51113;53.646;-113.674;2024-01-30T13:07:16;1.08;;;0.80;;
64686;SDS011;51113;53.646;-113.674;2024-01-30T13:09:44;0.68;;;0.60;;
64686;SDS011;51113;53.646;-113.674;2024-01-30T13:12:13;0.85;;;0.70;;
64686;SDS011;51113;53.646;-113.674;2024-01-30T13:14:42;0.70;;;0.70;;
64686;SDS011;51113;53.646;-113.674;2024-01-30T13:17:11;0.70;;;0.68;;
64686;SDS011;51113;53.646;-113.674;2024-01-30T13:19:39;0.60;;;0.60;;
64686;SDS011;51113;53.646;-113.674;2024-01-30T13:22:08;1.60;;;0.60;;
64686;SDS011;51113;53.646;-113.674;2024-01-30T13:24:36;0.85;;;0.70;;
64686;SDS011;51113;53.646;-113.674;2024-01-30T13:27:05;0.60;;;0.60;;
64686;SDS011;51113;53.646;-113.674;2024-01-30T13:29:34;0.50;;;0.50;;
64686;SDS011;51113;53.646;-113.674;2024-01-30T13:32:03;0.60;;;0.60;;
64686;SDS011;51113;53.646;-113.674;2024-01-30T13:34:32;0.60;;;0.60;;
64686;SDS011;51113;53.646;-113.674;2024-01-30T13:37:01;0.68;;;0.60;;
64686;SDS011;51113;53.646;-113.674;2024-01-30T13:39:29;0.77;;;0.60;;
64686;SDS011;51113;53.646;-113.674;2024-01-30T13:42:04;0.80;;;0.68;;
64686;SDS011;51113;53.646;-113.674;2024-01-30T13:44:32;0.50;;;0.50;;
64686;SDS011;51113;53.646;-113.674;2024-01-30T13:47:02;0.55;;;0.55;;
64686;SDS011;51113;53.646;-113.674;2024-01-30T13:49:31;1.77;;;0.68;;
64686;SDS011;51113;53.646;-113.674;2024-01-30T13:51:59;0.60;;;0.60;;
64686;SDS011;51113;53.646;-113.674;2024-01-30T13:54:28;0.90;;;0.60;;
64686;SDS011;51113;53.646;-113.674;2024-01-30T13:56:58;1.10;;;0.70;;
64686;SDS011;51113;53.646;-113.674;2024-01-30T13:59:27;0.68;;;0.68;;
64686;SDS011;51113;53.646;-113.674;2024-01-30T14:01:55;0.60;;;0.60;;
64686;SDS011;51113;53.646;-113.674;2024-01-30T14:04:24;2.00;;;0.60;;
64686;SDS011;51113;53.646;-113.674;2024-01-30T14:06:53;0.85;;;0.60;;
64686;SDS011;51113;53.646;-113.674;2024-01-30T14:09:30;0.60;;;0.60;;
64686;SDS011;51113;53.646;-113.674;2024-01-30T14:12:00;0.50;;;0.50;;
64686;SDS011;51113;53.646;-113.674;2024-01-30T14:14:28;1.08;;;0.60;;
64686;SDS011;51113;53.646;-113.674;2024-01-30T14:16:57;1.02;;;0.50;;
64686;SDS011;51113;53.646;-113.674;2024-01-30T14:19:25;0.52;;;0.52;;
64686;SDS011;51113;53.646;-113.674;2024-01-30T14:21:54;0.60;;;0.60;;
64686;SDS011;51113;53.646;-113.674;2024-01-30T14:24:23;0.60;;;0.60;;